• Join FlightAware (Why Join?)
  • Login
  • US Flag 
11:56AM EDT


 

Airport Tracker/Info


-or-


 

Live Flight TrackerFlight Track Log ✈ AAY841 ✈ 13-Apr-2014 ✈ KTRI - KPIE

Flight Track Log - Related Links

Times and Time Zones

All times are in EDT time to prevent confusion due to time zone crossing. See the AAY841 flight status page for this flight to view local times or setup timezone preferences in your user account.

Time Position Orientation Groundspeed Altitude Reporting Facility
EDT Latitude Longitude Course Direction KTS MPH feet Rate Location/Type
10:42AM 36.3983 -82.4472 171° South 197 227 4,600  Level Atlanta Center
10:44AM 36.2500 -82.4192 171° South 270 311 10,500 2,520 Climbing Atlanta Center
10:45AM 36.1600 -82.4056 173° South 304 350 12,300 2,220 Climbing Atlanta Center
10:46AM 36.0639 -82.3872 171° South 345 397 15,000 2,760 Climbing Atlanta Center
10:47AM 35.9592 -82.3686 172° South 364 419 17,900 2,460 Climbing Atlanta Center
10:48AM 35.8569 -82.3503 172° South 374 430 20,000 2,100 Climbing Atlanta Center
10:49AM 35.7503 -82.3294 171° South 374 430 22,200 2,100 Climbing Atlanta Center
10:50AM 35.6436 -82.3139 173° South 385 443 24,200 1,440 Climbing Atlanta Center
10:56AM 34.8707 -82.2218 177° South 471 542 32,100 1,320 Climbing FlightAware ADS-B (KDZJ)
10:56AM 34.7737 -82.2165 178° South 470 541 33,100 1,380 Climbing FlightAware ADS-B (KDZJ)
10:57AM 34.6896 -82.2121 178° South 470 541 34,000 1,200 Climbing FlightAware ADS-B (KDZJ)
10:58AM 34.6060 -82.2079 178° South 479 551 34,600 900 Climbing FlightAware ADS-B (KDZJ)
10:58AM 34.5088 -82.2029 178° South 483 556 35,300 600 Climbing FlightAware ADS-B (KDZJ)
10:59AM 34.5006 -82.2039 178° South 483 556 35,400 720 Climbing Atlanta Center
11:00AM 34.3689 -82.1967 177° South 478 550 36,400 900 Climbing Atlanta Center
11:01AM 34.2333 -82.1894 177° South 478 550 37,300 780 Climbing Atlanta Center
11:02AM 34.0994 -82.1825 178° South 478 550 38,000 300 Climbing Atlanta Center
11:03AM 33.9678 -82.1728 176° South 478 550 38,000  Level Atlanta Center
11:04AM 33.8342 -82.1656 177° South 478 550 38,000  Level Atlanta Center
11:05AM 33.6986 -82.1611 178° South 484 557 38,000  Level Atlanta Center
11:06AM 33.5819 -82.1811 188° South 479 551 38,100  Climbing Atlanta Center
11:07AM 33.4486 -82.2014 187° South 479 551 38,000 -60 Descending Atlanta Center
11:08AM 33.3217 -82.2239 188° South 479 551 38,000  Level Atlanta Center
11:09AM 33.1906 -82.2467 188° South 479 551 38,000  Level Atlanta Center
11:10AM 33.0592 -82.2692 188° South 484 557 38,000  Level Atlanta Center
11:12AM 32.7372 -82.3172 187° South 478 550 38,000  Level Jacksonville Center
11:13AM 32.6058 -82.3403 188° South 478 550 38,000  Level Jacksonville Center
11:14AM 32.4806 -82.3581 187° South 478 550 38,000  Level Jacksonville Center
11:15AM 32.3575 -82.3811 189° South 464 534 38,000  Level Jacksonville Center
11:16AM 32.2303 -82.3989 187° South 464 534 38,000  Level Jacksonville Center
11:17AM 32.1008 -82.4192 188° South 464 534 38,000  Level Jacksonville Center
11:18AM 31.9736 -82.4394 188° South 464 534 38,000  Level Jacksonville Center
11:19AM 31.8506 -82.4572 187° South 464 534 38,000  Level Jacksonville Center
11:20AM 31.7211 -82.4700 185° South 464 534 38,000  Level Jacksonville Center
11:21AM 31.5875 -82.4633 178° South 464 534 38,000  Level Jacksonville Center
11:22AM 31.4622 -82.4542 176° South 464 534 38,000  Level Jacksonville Center
11:28AM 30.7081 -82.4166 178° South 475 547 38,000  Level FlightAware ADS-B (KMCO)
11:29AM 30.5728 -82.4095 178° South 475 547 38,000  Level FlightAware ADS-B (KMCO)
11:30AM 30.4996 -82.4058 178° South 475 547 38,000 -420 Level FlightAware ADS-B (KMCO)
11:30AM 30.4260 -82.4018 177° South 472 543 37,600 -840 Descending FlightAware ADS-B (KMCO)
11:31AM 30.3242 -82.3966 178° South 470 541 36,900 -960 Descending FlightAware ADS-B (KMCO)
11:32AM 30.2262 -82.3916 177° South 472 543 36,200 -1,020 Descending FlightAware ADS-B (KMCO)
11:33AM 30.0951 -82.3849 177° South 471 542 35,200 -1,140 Descending FlightAware ADS-B (KMCO)
11:33AM 30.0379 -82.3818 178° South 475 547 34,500 -1,860 Descending FlightAware ADS-B (KMCO)
11:34AM 29.9601 -82.3777 177° South 471 542 33,300 -2,280 Descending FlightAware ADS-B (KMCO)
11:34AM 29.8948 -82.3742 177° South 464 534 32,200 -2,100 Descending FlightAware ADS-B (KMCO)
11:35AM 29.8299 -82.3708 178° South 457 526 31,200 -2,220 Descending FlightAware ADS-B (KMCO)
11:35AM 29.7639 -82.3676 178° South 449 517 30,000 -2,220 Descending FlightAware ADS-B (KMCO)
11:36AM 29.7018 -82.3643 177° South 444 511 29,000 -2,100 Descending FlightAware ADS-B (KMCO)
11:36AM 29.6353 -82.3609 178° South 434 499 27,800 -2,100 Descending FlightAware ADS-B (KMCO)
11:37AM 29.5501 -82.3541 174° South 432 497 26,400 -1,440 Descending FlightAware ADS-B (KMCO)
11:38AM 29.4802 -82.3457 174° South 434 499 26,000 -420 Descending FlightAware ADS-B (KMCO)
11:38AM 29.4220 -82.3388 174° South 434 499 26,000 -1,020 Level FlightAware ADS-B (KMCO)
11:39AM 29.3384 -82.3288 174° South 433 498 24,800 -2,220 Descending FlightAware ADS-B (KMCO)
11:39AM 29.2975 -82.3240 174° South 431 496 23,400 -2,520 Descending FlightAware ADS-B (KMCO)
11:40AM 29.2202 -82.3145 174° South 423 487 22,200 -3,180 Descending FlightAware ADS-B (KMCO)
11:41AM 29.1252 -82.3034 174° South 420 483 19,400 -3,000 Descending FlightAware ADS-B (KMCO)
11:42AM 29.0121 -82.2900 174° South 416 479 17,000 -2,400 Descending FlightAware ADS-B (KMCO)
11:42AM 28.9388 -82.2813 174° South 412 474 15,200 -2,280 Descending FlightAware ADS-B (KMCO)
11:43AM 28.8458 -82.2702 174° South 382 440 12,800 -840 Descending FlightAware ADS-B (KMCO)
11:45AM 28.6500 -82.2500 180° South 296 341 12,900 -240 Climbing Tampa TRACON
11:45AM 28.6380 -82.2561 179° South 303 349 12,400 -1,740 Descending FlightAware ADS-B (KMCO)
11:46AM 28.5910 -82.2553 179° South 298 343 11,600 -1,260 Descending FlightAware ADS-B (KMCO)
11:46AM 28.5667 -82.2500 180° South 299 344 11,400 -1,800 Descending Tampa TRACON
11:46AM 28.5483 -82.2577 179° South 297 342 10,700 -1,980 Descending FlightAware ADS-B (KMCO)
11:47AM 28.5204 -82.2840 241° Southwest 300 345 10,000 -840 Descending FlightAware ADS-B (KMCO)
11:47AM 28.5167 -82.3167 230° Southwest 300 345 10,100  Climbing Tampa TRACON
11:48AM 28.4833 -82.3833 240° Southwest 302 348 10,000 -240 Descending Tampa TRACON
11:49AM 28.4500 -82.4667 246° West 300 345 9,700 -900 Descending Tampa TRACON
11:50AM 28.4333 -82.5500 257° West 268 308 8,300 -1,800 Descending Tampa TRACON
11:51AM 28.1428 -82.4000 180° South  Level FlightAware Approximate
11:51AM 28.4333 -82.6500 270° West 278 320 6,200  Level Tampa TRACON
11:52AM 28.3833 -82.7000 221° Southwest 230 265 4,800 -1,560 Descending Tampa TRACON
11:53AM 28.3167 -82.7167 192° South 215 247 3,000 -900 Descending Tampa TRACON
11:54AM 28.2667 -82.7000 164° South 185 213 3,000 -600 Level Tampa TRACON
11:55AM 28.2167 -82.7000 180° South 182 209 1,900 -780 Descending Tampa TRACON
11:56AM 28.1667 -82.6833 164° South 185 213 1,500 -240 Descending Tampa TRACON
11:57AM 28.1167 -82.6833 180° South 186 214 1,500  Level Tampa TRACON
11:58AM 28.0667 -82.6667 164° South 183 211 1,500  Level Tampa TRACON
11:59AM 28.0167 -82.6667 180° South 185 213 1,500 -300 Level Tampa TRACON
12:00PM 27.9667 -82.6833 196° South 189 217 900 -720 Descending Tampa TRACON
12:02PM 27.9100 -82.6875 184° South  Level Estimated
12:09PM 27.9100 -82.6875 North  Level Estimated
12:10PM 27.9100 -82.6875 310° West  Level Estimated
12:11PM 27.9100 -82.6875 310° West  Level Estimated